Briefing drone pour Andrezieux-boutheon

Rechercher une autre localisation

Conditions de vol :


Nous sommes le : Mardi 30 novembre 2021
Il est 00:38 UTC (01:38 LT)

Lever de soleil : 06:35 UTC (07:35 LT)
Coucher de soleil : 16:27 UTC (17:27 LT)

Météo

L'essentiel des conditions de vol

VIGILANCE MÉTÉO FRANCE - Loire (42)
Vigilance Jaune : Neige-verglas
CARTE TEMSI
CARTES DES FRONTS
METAR de LFMH
LFMH 300030Z AUTO 18003KT 9999 OVC035 M00/M01 Q1022

Date d'émission: 30/11/2021
Heure d'émission: 00:30 UTC
Vent: 180° pour 3 KT (6 km/h)
Visibilité horizontale: > 10 km
Plafond :
- Couvert à 3500ft (1067m)
Température: 0 °C
Point de rosée: -1 °C
Humidité: 93%
Pression (QNH): 1022 hPa
TAF de LFMH
LFMH 161901Z 1619/1712 CNL

Conditions prévues :

Heure d'émission : Bulletin éffectué le 16 à 19:00 UTC
Prévision : Valide du 16 a 19:00 UTC au 17 a 12:00 UTC
Nuages : à 0ft (0 m)
WEBCAM POUR ANDREZIEUX-BOUTHEON

Réglementation

Voler en sécurité

CARTES AERONAUTIQUE 1/500.000
CARTES VAC (LFMH)
SUP AIP




Chargement des AIP...
NOTAM (ANDREZIEUX-BOUTHEON + Terrain à proximité / FIR )




Chargement des NOTAMS...
CONTACT PREFECTURE 42


Avertissement : Les données mises à disposition sont indicatives. Oxygène Drone ne pourra être tenu responsable de dégâts causés aux biens et aux personnes.